createdAt,value
2023-01-29T00:00:24.609Z,-1.94
2023-01-29T00:04:26.158Z,-2.19
2023-01-29T00:08:27.614Z,-2.22
2023-01-29T00:12:29.085Z,-2.39
2023-01-29T00:16:30.570Z,-2.32
2023-01-29T00:20:32.092Z,-2.36
2023-01-29T00:24:33.566Z,-2.14
2023-01-29T00:28:35.019Z,-2.45
2023-01-29T00:32:36.496Z,-2.15
2023-01-29T00:36:37.999Z,-2.32
2023-01-29T00:40:58.784Z,-2.39
2023-01-29T00:45:00.292Z,-2.25
2023-01-29T00:49:01.861Z,-2.29
2023-01-29T00:53:03.377Z,-2.14
2023-01-29T00:57:04.826Z,-2.26
2023-01-29T01:01:06.376Z,-1.90
2023-01-29T01:05:13.960Z,-1.98
2023-01-29T01:09:34.185Z,-2.11
2023-01-29T01:13:35.703Z,-2.24
2023-01-29T01:17:37.212Z,-1.93
2023-01-29T01:21:38.656Z,-2.08
2023-01-29T01:25:40.250Z,-1.97
2023-01-29T01:29:41.797Z,-2.21
2023-01-29T01:33:43.242Z,-1.97
2023-01-29T01:37:44.675Z,-2.12
2023-01-29T01:41:46.461Z,-2.08
2023-01-29T01:45:48.420Z,-2.08
2023-01-29T01:49:50.134Z,-1.91
2023-01-29T01:54:09.420Z,-1.84
2023-01-29T01:58:16.733Z,-1.77
2023-01-29T02:02:37.036Z,-2.01
2023-01-29T02:06:58.744Z,-2.05
2023-01-29T02:11:01.156Z,-2.14
2023-01-29T02:15:02.743Z,-1.80
2023-01-29T02:19:22.234Z,-2.13
2023-01-29T02:23:32.891Z,-2.15
2023-01-29T02:27:59.487Z,-1.95
2023-01-29T02:32:07.100Z,-2.12
2023-01-29T02:36:38.739Z,-2.06
2023-01-29T02:40:46.923Z,-2.04
2023-01-29T02:45:04.530Z,-1.86
2023-01-29T02:49:08.934Z,-1.98
2023-01-29T02:53:19.189Z,-1.85
2023-01-29T02:57:29.551Z,-2.03
2023-01-29T03:01:39.925Z,-1.92
2023-01-29T03:06:06.303Z,-1.67
2023-01-29T03:10:16.142Z,-1.93
2023-01-29T03:14:58.814Z,-1.94
2023-01-29T03:19:13.573Z,-1.74
2023-01-29T03:23:50.568Z,-1.80
2023-01-29T03:28:20.944Z,-1.96
2023-01-29T03:32:26.505Z,-1.86
2023-01-29T03:36:55.762Z,-1.84
2023-01-29T03:41:05.840Z,-1.92
2023-01-29T03:45:09.976Z,-1.91
2023-01-29T03:49:34.536Z,-1.89
2023-01-29T03:53:58.724Z,-1.96
2023-01-29T03:58:24.253Z,-1.88
2023-01-29T04:02:31.940Z,-2.09
2023-01-29T04:06:37.523Z,-1.88
2023-01-29T04:10:42.117Z,-1.95
2023-01-29T04:14:45.898Z,-1.86
2023-01-29T04:18:48.441Z,-1.93
2023-01-29T04:22:52.522Z,-1.86
2023-01-29T04:27:23.574Z,-1.81
2023-01-29T04:31:30.754Z,-1.78
2023-01-29T04:35:54.693Z,-1.86
2023-01-29T04:40:08.996Z,-1.75
2023-01-29T04:44:16.201Z,-1.80
2023-01-29T04:48:32.887Z,-1.73
2023-01-29T04:52:49.148Z,-1.71
2023-01-29T04:57:11.293Z,-1.63
2023-01-29T05:01:16.508Z,-1.77
2023-01-29T05:05:20.150Z,-1.64
2023-01-29T05:09:23.225Z,-1.66
2023-01-29T05:13:26.793Z,-1.71
2023-01-29T05:17:28.820Z,-1.75
2023-01-29T05:21:30.338Z,-1.58
2023-01-29T05:25:33.438Z,-1.48
2023-01-29T05:29:34.953Z,-1.36
2023-01-29T05:33:38.478Z,-1.64
2023-01-29T05:37:39.976Z,-1.57
2023-01-29T05:41:41.421Z,-1.63
2023-01-29T05:45:43.330Z,-1.67
2023-01-29T05:49:44.771Z,-1.89
2023-01-29T05:53:46.231Z,-1.71
2023-01-29T05:57:47.658Z,-1.91
2023-01-29T06:01:49.104Z,-1.77
2023-01-29T06:05:50.608Z,-1.85
2023-01-29T06:09:52.100Z,-1.92
2023-01-29T06:13:53.756Z,-1.70
2023-01-29T06:17:56.074Z,-1.67
2023-01-29T06:21:57.602Z,-1.52
2023-01-29T06:26:03.565Z,-1.76
2023-01-29T06:30:06.199Z,-1.78
2023-01-29T06:34:08.259Z,-1.65
2023-01-29T06:38:09.696Z,-1.63
2023-01-29T06:42:11.132Z,-1.57
2023-01-29T06:46:12.625Z,-1.55
2023-01-29T06:50:14.172Z,-1.41
2023-01-29T06:54:15.791Z,-1.56
2023-01-29T06:58:17.255Z,-1.51
2023-01-29T07:02:18.750Z,-1.43
2023-01-29T07:06:20.187Z,-1.65
2023-01-29T07:10:21.653Z,-1.55
2023-01-29T07:14:23.135Z,-1.44
2023-01-29T07:18:24.602Z,-1.48
2023-01-29T07:22:26.057Z,-1.50
2023-01-29T07:26:27.626Z,-1.51
2023-01-29T07:30:29.546Z,-1.48
2023-01-29T07:34:31.129Z,-0.86
2023-01-29T07:38:32.592Z,-1.40
2023-01-29T07:42:34.041Z,-1.30
2023-01-29T07:46:35.571Z,-1.20
2023-01-29T07:50:37.898Z,-1.30
2023-01-29T07:54:39.368Z,-1.47
2023-01-29T07:58:40.816Z,-1.48
2023-01-29T08:02:42.305Z,-1.35
2023-01-29T08:06:43.903Z,-1.49
2023-01-29T08:10:45.349Z,-1.34
2023-01-29T08:14:46.881Z,-1.20
2023-01-29T08:18:48.859Z,-1.44
2023-01-29T08:22:50.294Z,-1.26
2023-01-29T08:26:52.001Z,-1.26
2023-01-29T08:30:53.827Z,-1.35
2023-01-29T08:34:55.313Z,-1.43
2023-01-29T08:38:56.745Z,-1.28
2023-01-29T08:43:07.827Z,-1.32
2023-01-29T08:47:10.567Z,-1.25
2023-01-29T08:51:12.802Z,-1.08
2023-01-29T08:55:14.649Z,-1.17
2023-01-29T08:59:16.356Z,-1.15
2023-01-29T09:03:17.834Z,-0.93
2023-01-29T09:07:21.728Z,-1.25
2023-01-29T09:11:23.190Z,-0.95
2023-01-29T09:15:25.231Z,-1.18
2023-01-29T09:19:26.639Z,-0.83
2023-01-29T09:23:29.210Z,-0.80
2023-01-29T09:27:30.743Z,-0.86
2023-01-29T09:31:32.317Z,-0.86
2023-01-29T09:35:34.499Z,-0.81
2023-01-29T09:39:35.931Z,-0.65
2023-01-29T09:43:48.192Z,-0.62
2023-01-29T09:47:49.726Z,-0.69
2023-01-29T09:52:01.277Z,-0.60
2023-01-29T09:56:06.167Z,-0.66
2023-01-29T10:00:20.536Z,-0.53
2023-01-29T10:04:31.353Z,-0.45
2023-01-29T10:08:51.057Z,-0.34
2023-01-29T10:13:06.897Z,0.38
2023-01-29T10:17:40.286Z,0.33
2023-01-29T10:21:50.813Z,0.50
2023-01-29T10:25:53.878Z,0.57
2023-01-29T10:29:56.177Z,0.15
2023-01-29T10:34:04.599Z,0.52
2023-01-29T10:38:15.719Z,0.61
2023-01-29T10:42:20.557Z,0.79
2023-01-29T10:46:46.016Z,1.13
2023-01-29T10:50:54.680Z,1.33
2023-01-29T10:55:22.350Z,1.44
2023-01-29T10:59:26.619Z,1.66
2023-01-29T11:03:32.761Z,1.43
2023-01-29T11:07:34.381Z,1.59
2023-01-29T11:11:52.537Z,1.55
2023-01-29T11:15:54.031Z,1.70
2023-01-29T11:19:55.863Z,1.51
2023-01-29T11:24:16.918Z,1.45
2023-01-29T11:28:36.223Z,1.43
2023-01-29T11:32:37.793Z,1.66
2023-01-29T11:36:39.931Z,1.73
2023-01-29T11:40:41.837Z,1.55
2023-01-29T11:44:43.304Z,1.84
2023-01-29T11:48:50.229Z,1.67
2023-01-29T11:52:51.955Z,1.62
2023-01-29T11:56:54.367Z,1.37
2023-01-29T12:00:58.352Z,1.72
2023-01-29T12:05:06.065Z,1.80
2023-01-29T12:09:16.711Z,1.97
2023-01-29T12:13:26.609Z,1.68
2023-01-29T12:17:33.535Z,1.66
2023-01-29T12:21:37.636Z,1.69
2023-01-29T12:25:50.518Z,1.92
2023-01-29T12:30:20.995Z,1.75
2023-01-29T12:34:59.859Z,1.81
2023-01-29T12:39:01.559Z,1.72
2023-01-29T12:43:13.905Z,1.66
2023-01-29T12:47:23.156Z,1.70
2023-01-29T12:51:31.422Z,1.66
2023-01-29T12:55:38.467Z,1.92
2023-01-29T12:59:45.349Z,1.70
2023-01-29T13:03:55.477Z,1.73
2023-01-29T13:08:21.719Z,1.60
2023-01-29T13:12:24.409Z,1.82
2023-01-29T13:16:30.406Z,1.77
2023-01-29T13:20:35.200Z,1.69
2023-01-29T13:24:42.309Z,1.92
2023-01-29T13:28:45.753Z,1.84
2023-01-29T13:32:52.770Z,1.79
2023-01-29T13:37:01.497Z,1.66
2023-01-29T13:41:10.262Z,1.72
2023-01-29T13:45:21.388Z,1.77
2023-01-29T13:49:31.151Z,1.60
2023-01-29T13:53:40.048Z,1.64
2023-01-29T13:57:44.700Z,1.48
2023-01-29T14:01:49.004Z,1.35
2023-01-29T14:05:53.445Z,1.46
2023-01-29T14:10:14.558Z,1.34
2023-01-29T14:14:48.128Z,1.24
2023-01-29T14:19:00.219Z,1.28
2023-01-29T14:23:04.156Z,1.09
2023-01-29T14:27:05.728Z,1.10
2023-01-29T14:31:07.710Z,1.10
2023-01-29T14:35:21.923Z,0.80
2023-01-29T14:39:43.929Z,0.56
2023-01-29T14:43:45.370Z,0.68
2023-01-29T14:47:46.781Z,0.35
2023-01-29T14:51:48.616Z,0.56
2023-01-29T14:56:15.189Z,0.74
2023-01-29T15:00:26.648Z,0.56
2023-01-29T15:04:38.023Z,0.48
2023-01-29T15:08:45.557Z,0.47
2023-01-29T15:13:00.473Z,0.32
2023-01-29T15:17:20.649Z,0.43
2023-01-29T15:21:22.333Z,0.54
2023-01-29T15:25:24.365Z,0.27
2023-01-29T15:29:27.980Z,0.36
2023-01-29T15:33:31.194Z,0.21
2023-01-29T15:37:35.365Z,0.25
2023-01-29T15:41:37.213Z,0.24
2023-01-29T15:45:40.703Z,0.26
2023-01-29T15:49:42.471Z,0.34
2023-01-29T15:53:47.496Z,0.36
2023-01-29T15:57:50.107Z,0.38
2023-01-29T16:01:52.372Z,0.11
2023-01-29T16:05:54.981Z,0.16
2023-01-29T16:09:57.519Z,0.15
2023-01-29T16:13:59.572Z,0.32
2023-01-29T16:18:04.269Z,0.17
2023-01-29T16:22:08.470Z,0.20
2023-01-29T16:26:17.162Z,0.08
2023-01-29T16:30:19.014Z,0.19
2023-01-29T16:34:28.219Z,0.24
2023-01-29T16:38:34.691Z,0.18
2023-01-29T16:42:37.711Z,0.10
2023-01-29T16:46:46.520Z,0.24
2023-01-29T16:50:54.896Z,0.10
2023-01-29T16:55:21.176Z,0.24
2023-01-29T16:59:34.585Z,0.19
2023-01-29T17:03:37.306Z,0.32
2023-01-29T17:07:38.919Z,0.15
2023-01-29T17:11:41.750Z,0.18
2023-01-29T17:15:46.753Z,0.32
2023-01-29T17:19:48.383Z,0.23
2023-01-29T17:23:50.114Z,0.40
2023-01-29T17:27:52.150Z,0.15
2023-01-29T17:31:53.764Z,0.67
2023-01-29T17:35:55.342Z,0.30
2023-01-29T17:39:56.871Z,0.37
2023-01-29T17:43:58.372Z,0.47
2023-01-29T17:47:59.916Z,0.55
2023-01-29T17:52:01.500Z,0.27
2023-01-29T17:56:03.136Z,0.38
2023-01-29T18:00:13.770Z,0.36
2023-01-29T18:04:15.531Z,0.41
2023-01-29T18:08:26.586Z,0.34
2023-01-29T18:12:28.146Z,0.53
2023-01-29T18:16:36.467Z,0.33
2023-01-29T18:20:38.468Z,0.33
2023-01-29T18:24:40.246Z,0.48
2023-01-29T18:28:43.592Z,0.38
2023-01-29T18:32:47.140Z,0.52
2023-01-29T18:36:48.885Z,0.33
2023-01-29T18:40:50.356Z,0.41
2023-01-29T18:44:51.930Z,0.40
2023-01-29T18:48:53.491Z,0.31
2023-01-29T18:52:55.031Z,0.30
2023-01-29T18:57:08.257Z,0.26
2023-01-29T19:01:15.582Z,0.39
2023-01-29T19:05:19.287Z,0.43
2023-01-29T19:09:21.152Z,0.35
2023-01-29T19:13:22.594Z,0.14
2023-01-29T19:17:24.228Z,0.22
2023-01-29T19:21:25.778Z,0.27
2023-01-29T19:25:27.311Z,0.25
2023-01-29T19:29:28.839Z,0.20
2023-01-29T19:33:30.383Z,0.34
2023-01-29T19:37:31.954Z,0.43
2023-01-29T19:41:33.610Z,0.26
2023-01-29T19:45:49.071Z,0.30
2023-01-29T19:49:51.953Z,0.48
2023-01-29T19:53:53.605Z,0.36
2023-01-29T19:57:57.038Z,0.38
2023-01-29T20:01:58.598Z,0.38
2023-01-29T20:06:05.559Z,0.37
2023-01-29T20:10:11.248Z,0.32
2023-01-29T20:14:12.840Z,0.35
2023-01-29T20:18:15.482Z,0.40
2023-01-29T20:22:17.111Z,0.38
2023-01-29T20:26:19.322Z,0.28
2023-01-29T20:30:21.113Z,0.18
2023-01-29T20:34:23.995Z,0.19
2023-01-29T20:38:30.312Z,0.04
2023-01-29T20:42:31.901Z,0.04
2023-01-29T20:46:35.209Z,0.16
2023-01-29T20:50:37.871Z,0.12
2023-01-29T20:54:40.098Z,0.17
2023-01-29T20:58:41.903Z,0.29
2023-01-29T21:02:45.776Z,0.17
2023-01-29T21:06:47.373Z,0.16
2023-01-29T21:10:49.686Z,0.12
2023-01-29T21:14:51.259Z,-0.02
2023-01-29T21:18:56.274Z,-0.02
2023-01-29T21:22:57.896Z,0.39
2023-01-29T21:26:59.353Z,-0.02
2023-01-29T21:31:10.025Z,0.00
2023-01-29T21:35:11.569Z,-0.07
2023-01-29T21:39:20.831Z,-0.02
2023-01-29T21:43:22.305Z,-0.02
2023-01-29T21:47:23.851Z,-0.07
2023-01-29T21:51:25.400Z,0.08
2023-01-29T21:55:26.927Z,-0.11
2023-01-29T21:59:28.444Z,-0.14
2023-01-29T22:03:30.048Z,-0.01
2023-01-29T22:07:31.657Z,-0.03
2023-01-29T22:11:33.180Z,-0.03
2023-01-29T22:15:34.816Z,-0.05
2023-01-29T22:19:36.292Z,-0.04
2023-01-29T22:23:38.000Z,-0.04
2023-01-29T22:27:39.485Z,-0.13
2023-01-29T22:31:40.958Z,-0.14
2023-01-29T22:35:42.422Z,-0.03
2023-01-29T22:39:43.871Z,-0.03
2023-01-29T22:43:45.328Z,-0.14
2023-01-29T22:47:46.809Z,-0.02
2023-01-29T22:51:48.383Z,-0.03
2023-01-29T22:55:56.077Z,-0.10
2023-01-29T22:59:57.542Z,-0.23
2023-01-29T23:03:59.031Z,-0.12
2023-01-29T23:08:00.477Z,-0.03
2023-01-29T23:12:02.053Z,-0.04
2023-01-29T23:16:03.707Z,-0.08
2023-01-29T23:20:05.859Z,0.02
2023-01-29T23:24:08.368Z,-0.08
2023-01-29T23:28:09.885Z,-0.12
2023-01-29T23:32:14.159Z,0.06
2023-01-29T23:36:15.635Z,0.08
2023-01-29T23:40:17.719Z,-0.10
2023-01-29T23:44:20.278Z,-0.17
2023-01-29T23:48:22.452Z,0.04
2023-01-29T23:52:23.910Z,-0.05
2023-01-29T23:56:25.370Z,-0.05
